createdAt,value
2017-08-02T00:01:05.984Z,9.23
2017-08-02T00:03:34.339Z,9.73
2017-08-02T00:06:01.775Z,9.57
2017-08-02T00:08:29.242Z,9.50
2017-08-02T00:10:56.724Z,8.17
2017-08-02T00:13:24.963Z,8.50
2017-08-02T00:15:52.527Z,7.37
2017-08-02T00:18:19.978Z,7.27
2017-08-02T00:20:47.436Z,7.27
2017-08-02T00:23:14.900Z,8.63
2017-08-02T00:25:42.376Z,7.30
2017-08-02T00:28:09.825Z,6.40
2017-08-02T00:30:37.412Z,7.70
2017-08-02T00:33:04.865Z,6.83
2017-08-02T00:35:32.340Z,5.80
2017-08-02T00:37:59.849Z,6.90
2017-08-02T00:40:27.313Z,5.80
2017-08-02T00:42:54.794Z,7.63
2017-08-02T00:45:23.041Z,7.53
2017-08-02T00:47:50.488Z,6.20
2017-08-02T00:50:18.037Z,6.53
2017-08-02T00:52:45.484Z,6.37
2017-08-02T00:55:13.052Z,7.80
2017-08-02T00:57:40.616Z,7.10
2017-08-02T01:00:08.073Z,7.73
2017-08-02T01:02:35.529Z,6.90
2017-08-02T01:05:02.967Z,7.57
2017-08-02T01:07:30.541Z,6.80
2017-08-02T01:09:57.980Z,7.23
2017-08-02T01:12:25.416Z,9.20
2017-08-02T01:14:52.903Z,8.47
2017-08-02T01:17:20.367Z,7.40
2017-08-02T01:19:47.919Z,11.50
2017-08-02T01:22:15.487Z,7.87
2017-08-02T01:24:42.924Z,8.37
2017-08-02T01:27:10.419Z,8.03
2017-08-02T01:29:37.868Z,8.73
2017-08-02T01:32:05.440Z,7.43
2017-08-02T01:34:32.891Z,9.67
2017-08-02T01:37:01.149Z,7.17
2017-08-02T01:39:28.709Z,8.00
2017-08-02T01:41:56.226Z,7.17
2017-08-02T01:44:23.684Z,7.40
2017-08-02T01:46:51.127Z,7.00
2017-08-02T01:49:18.560Z,6.80
2017-08-02T01:51:46.785Z,7.67
2017-08-02T01:54:14.240Z,8.03
2017-08-02T01:56:41.713Z,8.20
2017-08-02T01:59:09.148Z,8.87
2017-08-02T02:01:36.593Z,6.40
2017-08-02T02:04:04.052Z,7.10
2017-08-02T02:06:31.531Z,8.40
2017-08-02T02:08:59.030Z,6.30
2017-08-02T02:11:26.548Z,6.80
2017-08-02T02:13:53.992Z,8.30
2017-08-02T02:16:21.463Z,8.97
2017-08-02T02:18:48.920Z,9.27
2017-08-02T02:21:16.388Z,8.57
2017-08-02T02:23:43.843Z,8.90
2017-08-02T02:26:11.280Z,8.97
2017-08-02T02:28:38.843Z,10.03
2017-08-02T02:31:06.284Z,10.17
2017-08-02T02:33:33.754Z,9.60
2017-08-02T02:36:01.203Z,9.30
2017-08-02T02:38:28.669Z,9.20
2017-08-02T02:40:56.131Z,9.73
2017-08-02T02:43:24.353Z,10.50
2017-08-02T02:45:51.859Z,12.30
2017-08-02T02:48:19.416Z,12.20
2017-08-02T02:50:46.862Z,9.40
2017-08-02T02:53:14.324Z,9.50
2017-08-02T02:55:41.797Z,8.97
2017-08-02T02:58:09.345Z,9.50
2017-08-02T03:00:36.796Z,10.90
2017-08-02T03:03:04.351Z,7.70
2017-08-02T03:05:31.913Z,9.70
2017-08-02T03:07:59.414Z,9.93
2017-08-02T03:10:26.867Z,10.47
2017-08-02T03:12:54.325Z,10.53
2017-08-02T03:15:21.791Z,11.63
2017-08-02T03:17:49.239Z,10.93
2017-08-02T03:20:16.752Z,11.17
2017-08-02T03:22:44.236Z,10.10
2017-08-02T03:25:12.483Z,9.33
2017-08-02T03:27:39.959Z,13.47
2017-08-02T03:30:08.168Z,10.53
2017-08-02T03:32:35.615Z,10.30
2017-08-02T03:35:03.129Z,10.73
2017-08-02T03:37:30.585Z,9.60
2017-08-02T03:39:58.019Z,9.87
2017-08-02T03:42:25.595Z,11.07
2017-08-02T03:44:53.056Z,11.03
2017-08-02T03:47:20.505Z,10.07
2017-08-02T03:49:48.067Z,11.90
2017-08-02T03:52:15.507Z,10.70
2017-08-02T03:54:42.979Z,12.50
2017-08-02T03:57:10.424Z,12.10
2017-08-02T03:59:37.895Z,11.40
2017-08-02T04:02:05.372Z,11.93
2017-08-02T04:04:33.590Z,12.00
2017-08-02T04:07:01.079Z,11.50
2017-08-02T04:09:28.536Z,11.83
2017-08-02T04:11:55.998Z,11.17
2017-08-02T04:14:23.475Z,11.27
2017-08-02T04:16:51.720Z,10.70
2017-08-02T04:19:19.179Z,11.20
2017-08-02T04:21:46.743Z,10.67
2017-08-02T04:24:14.204Z,9.97
2017-08-02T04:26:41.668Z,9.93
2017-08-02T04:29:09.208Z,9.20
2017-08-02T04:31:36.656Z,10.50
2017-08-02T04:34:04.939Z,10.17
2017-08-02T04:36:32.384Z,9.53
2017-08-02T04:38:59.852Z,10.70
2017-08-02T04:41:27.333Z,10.00
2017-08-02T04:43:55.547Z,9.90
2017-08-02T04:46:23.009Z,10.23
2017-08-02T04:48:50.498Z,9.10
2017-08-02T04:51:17.933Z,9.73
2017-08-02T04:53:45.389Z,9.63
2017-08-02T04:56:12.852Z,11.07
2017-08-02T04:58:40.340Z,9.63
2017-08-02T05:01:08.552Z,10.90
2017-08-02T05:03:35.995Z,9.50
2017-08-02T05:06:03.504Z,10.80
2017-08-02T05:08:30.949Z,11.27
2017-08-02T05:10:58.522Z,12.53
2017-08-02T05:13:25.963Z,9.60
2017-08-02T05:15:53.474Z,9.57
2017-08-02T05:18:21.715Z,8.70
2017-08-02T05:20:49.260Z,10.33
2017-08-02T05:23:16.714Z,11.23
2017-08-02T05:25:44.184Z,12.00
2017-08-02T05:28:11.640Z,15.60
2017-08-02T05:30:39.083Z,11.23
2017-08-02T05:33:06.672Z,11.43
2017-08-02T05:35:34.918Z,11.37
2017-08-02T05:38:02.383Z,11.30
2017-08-02T05:40:29.877Z,11.63
2017-08-02T05:42:58.085Z,11.93
2017-08-02T05:45:25.544Z,11.20
2017-08-02T05:47:53.015Z,11.20
2017-08-02T05:50:20.472Z,9.00
2017-08-02T05:52:47.944Z,10.37
2017-08-02T05:55:15.395Z,9.33
2017-08-02T05:57:42.841Z,9.63
2017-08-02T06:00:10.332Z,9.80
2017-08-02T06:02:38.544Z,8.30
2017-08-02T06:05:06.021Z,10.20
2017-08-02T06:07:33.465Z,8.73
2017-08-02T06:10:00.944Z,10.43
2017-08-02T06:12:28.426Z,8.10
2017-08-02T06:14:56.644Z,8.73
2017-08-02T06:17:24.082Z,9.67
2017-08-02T06:19:51.572Z,8.73
2017-08-02T06:22:19.028Z,8.30
2017-08-02T06:24:46.472Z,8.67
2017-08-02T06:27:13.943Z,8.53
2017-08-02T06:29:41.405Z,9.67
2017-08-02T06:32:09.649Z,5.57
2017-08-02T06:34:37.239Z,8.40
2017-08-02T06:37:04.691Z,5.50
2017-08-02T06:39:32.274Z,5.93
2017-08-02T06:41:59.703Z,5.90
2017-08-02T06:44:27.191Z,5.83
2017-08-02T06:46:54.689Z,8.87
2017-08-02T06:49:22.127Z,6.63
2017-08-02T06:51:49.574Z,6.10
2017-08-02T06:54:17.811Z,6.67
2017-08-02T06:56:45.268Z,5.87
2017-08-02T06:59:12.707Z,6.67
2017-08-02T07:01:40.219Z,6.40
2017-08-02T07:04:08.451Z,5.67
2017-08-02T07:06:35.926Z,5.83
2017-08-02T07:09:03.378Z,7.33
2017-08-02T07:11:30.825Z,5.67
2017-08-02T07:13:58.412Z,5.40
2017-08-02T07:16:26.671Z,4.73
2017-08-02T07:18:54.227Z,5.17
2017-08-02T07:21:21.671Z,5.63
2017-08-02T07:23:49.177Z,5.20
2017-08-02T07:26:17.395Z,5.10
2017-08-02T07:28:44.846Z,6.40
2017-08-02T07:31:12.316Z,4.87
2017-08-02T07:33:39.778Z,5.13
2017-08-02T07:36:07.236Z,5.00
2017-08-02T07:38:34.689Z,5.60
2017-08-02T07:41:02.128Z,5.43
2017-08-02T07:43:29.612Z,7.20
2017-08-02T07:45:57.056Z,5.60
2017-08-02T07:48:24.613Z,6.27
2017-08-02T07:50:52.091Z,4.97
2017-08-02T07:53:20.361Z,6.43
2017-08-02T07:55:47.927Z,7.13
2017-08-02T07:58:15.475Z,5.50
2017-08-02T08:00:42.947Z,5.43
2017-08-02T08:03:11.196Z,5.20
2017-08-02T08:05:38.643Z,6.00
2017-08-02T08:08:06.126Z,6.37
2017-08-02T08:10:33.635Z,6.30
2017-08-02T08:13:01.226Z,5.73
2017-08-02T08:15:28.704Z,8.57
2017-08-02T08:17:56.923Z,5.70
2017-08-02T08:20:24.419Z,6.67
2017-08-02T08:22:51.880Z,5.50
2017-08-02T08:25:19.332Z,6.40
2017-08-02T08:27:46.818Z,6.43
2017-08-02T08:30:14.352Z,6.63
2017-08-02T08:32:41.840Z,6.77
2017-08-02T08:35:10.061Z,5.83
2017-08-02T08:37:37.492Z,5.33
2017-08-02T08:40:04.954Z,5.40
2017-08-02T08:42:32.395Z,6.13
2017-08-02T08:44:59.873Z,9.20
2017-08-02T08:47:27.312Z,5.40
2017-08-02T08:49:54.877Z,5.63
2017-08-02T08:52:22.368Z,6.43
2017-08-02T08:54:49.810Z,5.93
2017-08-02T08:57:17.296Z,8.40
2017-08-02T08:59:44.732Z,7.03
2017-08-02T09:02:12.182Z,7.00
2017-08-02T09:04:39.665Z,5.37
2017-08-02T09:07:07.912Z,6.20
2017-08-02T09:09:35.430Z,5.60
2017-08-02T09:12:03.624Z,7.30
2017-08-02T09:14:31.067Z,6.17
2017-08-02T09:16:58.561Z,6.27
2017-08-02T09:19:26.005Z,5.83
2017-08-02T09:21:53.476Z,6.27
2017-08-02T09:24:20.957Z,6.57
2017-08-02T09:26:49.166Z,7.53
2017-08-02T09:29:16.621Z,7.37
2017-08-02T09:31:44.101Z,11.10
2017-08-02T09:34:11.569Z,6.90
2017-08-02T09:36:39.058Z,6.80
2017-08-02T09:39:07.272Z,5.40
2017-08-02T09:41:34.718Z,5.40
2017-08-02T09:44:02.199Z,5.30
2017-08-02T09:46:29.660Z,5.87
2017-08-02T09:48:57.109Z,6.23
2017-08-02T09:51:24.602Z,6.80
2017-08-02T09:53:52.023Z,6.70
2017-08-02T09:56:19.463Z,5.70
2017-08-02T09:58:46.931Z,6.97
2017-08-02T10:01:14.399Z,5.83
2017-08-02T10:03:41.883Z,6.00
2017-08-02T10:06:10.113Z,6.60
2017-08-02T10:08:37.551Z,6.40
2017-08-02T10:11:05.031Z,5.33
2017-08-02T10:13:32.504Z,8.37
2017-08-02T10:16:00.031Z,5.63
2017-08-02T10:18:27.477Z,6.63
2017-08-02T10:20:54.916Z,6.80
2017-08-02T10:23:22.427Z,6.40
2017-08-02T10:25:49.874Z,6.67
2017-08-02T10:28:17.336Z,5.90
2017-08-02T10:30:44.820Z,4.77
2017-08-02T10:33:13.072Z,6.40
2017-08-02T10:35:40.517Z,6.40
2017-08-02T10:38:07.981Z,7.97
2017-08-02T10:40:35.444Z,6.67
2017-08-02T10:43:02.935Z,6.73
2017-08-02T10:45:31.151Z,6.13
2017-08-02T10:47:58.607Z,5.53
2017-08-02T10:50:26.111Z,6.37
2017-08-02T10:52:54.356Z,9.63
2017-08-02T10:55:21.836Z,6.47
2017-08-02T10:57:49.276Z,7.30
2017-08-02T11:00:16.731Z,6.40
2017-08-02T11:02:44.283Z,7.80
2017-08-02T11:05:11.724Z,6.50
2017-08-02T11:07:39.180Z,7.90
2017-08-02T11:10:06.644Z,6.50
2017-08-02T11:12:34.081Z,7.10
2017-08-02T11:15:01.547Z,6.20
2017-08-02T11:17:29.015Z,7.47
2017-08-02T11:19:56.488Z,6.43
2017-08-02T11:22:23.935Z,7.23
2017-08-02T11:24:51.406Z,6.90
2017-08-02T11:27:18.854Z,7.03
2017-08-02T11:29:46.297Z,7.97
2017-08-02T11:32:13.780Z,6.30
2017-08-02T11:34:41.241Z,7.17
2017-08-02T11:37:09.456Z,10.10
2017-08-02T11:39:36.924Z,6.77
2017-08-02T11:42:04.371Z,6.30
2017-08-02T11:44:31.851Z,6.80
2017-08-02T11:46:59.309Z,6.50
2017-08-02T11:49:26.756Z,6.80
2017-08-02T11:51:54.245Z,6.80
2017-08-02T11:54:21.687Z,6.63
2017-08-02T11:56:49.171Z,11.17
2017-08-02T11:59:17.387Z,6.60
2017-08-02T12:01:44.872Z,7.20
2017-08-02T12:04:12.348Z,7.00
2017-08-02T12:06:39.805Z,8.47
2017-08-02T12:09:07.347Z,7.57
2017-08-02T12:11:34.815Z,7.20
2017-08-02T12:14:02.274Z,7.90
2017-08-02T12:16:30.519Z,7.27
2017-08-02T12:18:58.104Z,7.00
2017-08-02T12:21:25.544Z,7.10
2017-08-02T12:23:53.059Z,7.60
2017-08-02T12:26:20.504Z,8.33
2017-08-02T12:28:48.728Z,6.83
2017-08-02T12:31:16.221Z,6.43
2017-08-02T12:33:44.436Z,6.80
2017-08-02T12:36:11.910Z,6.63
2017-08-02T12:38:39.383Z,9.10
2017-08-02T12:41:06.829Z,6.43
2017-08-02T12:43:34.300Z,6.97
2017-08-02T12:46:01.848Z,7.33
2017-08-02T12:48:29.308Z,6.67
2017-08-02T12:50:56.777Z,7.63
2017-08-02T12:53:24.221Z,7.10
2017-08-02T12:55:51.696Z,7.57
2017-08-02T12:58:19.908Z,6.73
2017-08-02T13:00:47.374Z,6.57
2017-08-02T13:03:14.855Z,7.57
2017-08-02T13:05:42.419Z,7.10
2017-08-02T13:08:09.860Z,6.90
2017-08-02T13:10:37.345Z,7.07
2017-08-02T13:13:04.776Z,6.30
2017-08-02T13:15:32.263Z,6.57
2017-08-02T13:18:00.484Z,7.33
2017-08-02T13:20:27.936Z,8.37
2017-08-02T13:22:55.520Z,5.73
2017-08-02T13:25:22.978Z,6.77
2017-08-02T13:27:50.407Z,6.30
2017-08-02T13:30:17.904Z,6.17
2017-08-02T13:32:45.347Z,6.30
2017-08-02T13:35:12.801Z,6.80
2017-08-02T13:37:40.272Z,8.07
2017-08-02T13:40:07.716Z,6.47
2017-08-02T13:42:35.194Z,6.47
2017-08-02T13:45:02.642Z,7.37
2017-08-02T13:47:30.081Z,6.77
2017-08-02T13:49:57.555Z,10.53
2017-08-02T13:52:25.066Z,6.17
2017-08-02T13:54:52.524Z,7.80
2017-08-02T13:57:20.001Z,6.67
2017-08-02T13:59:47.481Z,7.27
2017-08-02T14:02:14.942Z,6.10
2017-08-02T14:04:42.429Z,7.00
2017-08-02T14:07:10.634Z,7.50
2017-08-02T14:09:38.083Z,7.87
2017-08-02T14:12:05.552Z,7.30
2017-08-02T14:14:33.032Z,7.43
2017-08-02T14:17:00.514Z,6.57
2017-08-02T14:19:28.719Z,6.60
2017-08-02T14:21:56.208Z,7.63
2017-08-02T14:24:23.651Z,6.37
2017-08-02T14:26:51.094Z,6.30
2017-08-02T14:29:18.582Z,6.50
2017-08-02T14:31:46.021Z,6.10
2017-08-02T14:34:13.502Z,8.00
2017-08-02T14:36:40.950Z,7.57
2017-08-02T14:39:08.416Z,5.83
2017-08-02T14:41:35.886Z,6.27
2017-08-02T14:44:04.100Z,6.63
2017-08-02T14:46:31.604Z,6.17
2017-08-02T14:48:59.050Z,7.47
2017-08-02T14:51:26.500Z,6.40
2017-08-02T14:53:53.972Z,7.27
2017-08-02T14:56:21.442Z,6.83
2017-08-02T14:58:49.672Z,6.50
2017-08-02T15:01:17.119Z,7.37
2017-08-02T15:03:44.557Z,7.33
2017-08-02T15:06:12.083Z,5.90
2017-08-02T15:08:39.531Z,6.93
2017-08-02T15:11:07.014Z,8.10
2017-08-02T15:13:35.253Z,7.90
2017-08-02T15:16:02.817Z,7.03
2017-08-02T15:18:30.265Z,7.80
2017-08-02T15:20:57.827Z,7.70
2017-08-02T15:23:25.276Z,8.20
2017-08-02T15:25:52.869Z,7.10
2017-08-02T15:28:21.078Z,7.00
2017-08-02T15:30:48.547Z,9.10
2017-08-02T15:33:16.046Z,7.00
2017-08-02T15:35:44.295Z,6.77
2017-08-02T15:38:11.893Z,7.37
2017-08-02T15:40:40.120Z,7.00
2017-08-02T15:43:07.572Z,7.63
2017-08-02T15:45:35.932Z,7.00
2017-08-02T15:48:03.386Z,7.73
2017-08-02T15:50:30.835Z,7.10
2017-08-02T15:52:58.322Z,6.40
2017-08-02T15:55:25.792Z,7.13
2017-08-02T15:57:53.254Z,9.90
2017-08-02T16:00:20.734Z,6.90
2017-08-02T16:02:48.989Z,7.17
2017-08-02T16:05:16.547Z,7.07
2017-08-02T16:07:43.983Z,7.23
2017-08-02T16:10:11.548Z,7.40
2017-08-02T16:12:39.020Z,7.13
2017-08-02T16:15:06.586Z,7.33
2017-08-02T16:17:34.020Z,7.40
2017-08-02T16:20:01.571Z,8.27
2017-08-02T16:22:29.043Z,6.50
2017-08-02T16:24:56.556Z,8.43
2017-08-02T16:27:24.018Z,6.90
2017-08-02T16:29:51.472Z,8.23
2017-08-02T16:32:18.973Z,5.53
2017-08-02T16:34:46.430Z,5.53
2017-08-02T16:37:13.872Z,6.40
2017-08-02T16:39:41.401Z,7.00
2017-08-02T16:42:08.858Z,7.27
2017-08-02T16:44:36.347Z,6.90
2017-08-02T16:47:03.828Z,7.70
2017-08-02T16:49:32.045Z,7.50
2017-08-02T16:51:59.517Z,7.23
2017-08-02T16:54:27.012Z,7.83
2017-08-02T16:56:55.246Z,6.90
2017-08-02T16:59:22.707Z,6.37
2017-08-02T17:01:50.190Z,6.23
2017-08-02T17:04:17.722Z,8.73
2017-08-02T17:06:45.208Z,7.17
2017-08-02T17:09:12.756Z,6.90
2017-08-02T17:11:40.218Z,7.80
2017-08-02T17:14:07.790Z,6.93
2017-08-02T17:16:35.318Z,7.33
2017-08-02T17:19:02.762Z,7.30
2017-08-02T17:21:30.252Z,7.87
2017-08-02T17:23:58.475Z,7.37
2017-08-02T17:26:25.911Z,6.90
2017-08-02T17:28:53.397Z,7.50
2017-08-02T17:31:20.827Z,8.17
2017-08-02T17:33:48.293Z,7.47
2017-08-02T17:36:15.775Z,8.00
2017-08-02T17:38:43.351Z,8.97
2017-08-02T17:41:10.812Z,8.27
2017-08-02T17:43:38.261Z,7.43
2017-08-02T17:46:05.824Z,7.00
2017-08-02T17:48:33.264Z,10.43
2017-08-02T17:51:00.748Z,8.30
2017-08-02T17:53:28.979Z,11.07
2017-08-02T17:55:56.433Z,8.80
2017-08-02T17:58:23.928Z,8.90
2017-08-02T18:00:51.374Z,7.20
2017-08-02T18:03:18.836Z,7.47
2017-08-02T18:05:46.404Z,8.30
2017-08-02T18:08:14.654Z,8.10
2017-08-02T18:10:42.153Z,7.77
2017-08-02T18:13:10.401Z,7.60
2017-08-02T18:15:37.851Z,7.90
2017-08-02T18:18:05.527Z,8.23
2017-08-02T18:20:33.093Z,7.57
2017-08-02T18:23:00.635Z,8.03
2017-08-02T18:25:28.107Z,9.50
2017-08-02T18:27:55.575Z,8.43
2017-08-02T18:30:23.798Z,8.70
2017-08-02T18:32:51.246Z,8.10
2017-08-02T18:35:18.726Z,8.67
2017-08-02T18:37:46.168Z,8.10
2017-08-02T18:40:13.618Z,8.53
2017-08-02T18:42:41.108Z,9.13
2017-08-02T18:45:08.560Z,9.33
2017-08-02T18:47:36.007Z,9.10
2017-08-02T18:50:03.573Z,8.97
2017-08-02T18:52:31.027Z,8.10
2017-08-02T18:54:58.499Z,9.40
2017-08-02T18:57:26.717Z,8.30
2017-08-02T18:59:54.211Z,8.93
2017-08-02T19:02:23.303Z,8.93
2017-08-02T19:04:50.863Z,9.50
2017-08-02T19:07:18.415Z,9.07
2017-08-02T19:09:45.893Z,9.10
2017-08-02T19:12:14.162Z,10.00
2017-08-02T19:14:41.637Z,9.10
2017-08-02T19:17:09.939Z,10.07
2017-08-02T19:19:37.455Z,9.90
2017-08-02T19:22:05.026Z,11.27
2017-08-02T19:24:33.357Z,9.83
2017-08-02T19:27:00.969Z,10.80
2017-08-02T19:29:29.351Z,10.30
2017-08-02T19:31:56.945Z,11.10
2017-08-02T19:34:24.574Z,10.00
2017-08-02T19:36:52.164Z,10.40
2017-08-02T19:39:19.919Z,11.23
2017-08-02T19:41:47.794Z,11.50
2017-08-02T19:44:15.659Z,12.00
2017-08-02T19:46:43.164Z,11.40
2017-08-02T19:49:10.872Z,10.10
2017-08-02T19:51:38.634Z,10.80
2017-08-02T19:54:06.299Z,10.47
2017-08-02T19:56:33.834Z,13.07
2017-08-02T19:59:01.306Z,10.83
2017-08-02T20:01:28.806Z,11.93
2017-08-02T20:03:56.295Z,11.80
2017-08-02T20:06:24.505Z,12.07
2017-08-02T20:08:51.992Z,11.53
2017-08-02T20:11:19.453Z,13.73
2017-08-02T20:13:46.932Z,10.50
2017-08-02T20:16:16.136Z,11.57
2017-08-02T20:18:43.634Z,12.23
2017-08-02T20:21:11.108Z,11.63
2017-08-02T20:23:38.563Z,11.13
2017-08-02T20:26:06.061Z,12.83
2017-08-02T20:28:33.615Z,11.13
2017-08-02T20:31:01.835Z,11.03
2017-08-02T20:33:29.302Z,11.97
2017-08-02T20:35:56.861Z,12.83
2017-08-02T20:38:24.383Z,11.97
2017-08-02T20:40:52.164Z,11.90
2017-08-02T20:43:19.718Z,11.43
2017-08-02T20:45:47.193Z,11.57
2017-08-02T20:48:14.669Z,11.53
2017-08-02T20:50:42.137Z,12.27
2017-08-02T20:53:09.608Z,12.13
2017-08-02T20:55:37.841Z,13.07
2017-08-02T20:58:05.336Z,12.80
2017-08-02T21:00:33.593Z,11.67
2017-08-02T21:03:01.045Z,15.03
2017-08-02T21:05:28.532Z,12.97
2017-08-02T21:07:56.791Z,13.27
2017-08-02T21:10:24.253Z,13.27
2017-08-02T21:12:52.533Z,13.50
2017-08-02T21:15:20.756Z,12.13
2017-08-02T21:17:48.245Z,10.33
2017-08-02T21:20:15.719Z,10.70
2017-08-02T21:22:43.958Z,11.63
2017-08-02T21:25:11.435Z,12.40
2017-08-02T21:27:38.900Z,13.87
2017-08-02T21:30:07.141Z,11.10
2017-08-02T21:32:34.612Z,12.10
2017-08-02T21:35:02.079Z,12.50
2017-08-02T21:37:29.557Z,11.90
2017-08-02T21:39:57.031Z,11.70
2017-08-02T21:42:24.472Z,12.20
2017-08-02T21:44:51.987Z,12.60
2017-08-02T21:47:19.452Z,13.17
2017-08-02T21:49:46.940Z,18.60
2017-08-02T21:52:15.180Z,12.53
2017-08-02T21:54:42.656Z,12.50
2017-08-02T21:57:10.900Z,11.67
2017-08-02T21:59:38.378Z,12.30
2017-08-02T22:02:05.899Z,12.80
2017-08-02T22:04:33.410Z,13.10
2017-08-02T22:07:01.789Z,13.63
2017-08-02T22:09:29.260Z,12.97
2017-08-02T22:11:56.775Z,11.53
2017-08-02T22:14:24.273Z,12.17
2017-08-02T22:16:51.724Z,12.53
2017-08-02T22:19:19.222Z,11.20
2017-08-02T22:21:46.707Z,11.77
2017-08-02T22:24:14.145Z,12.43
2017-08-02T22:26:41.640Z,11.37
2017-08-02T22:29:09.873Z,11.33
2017-08-02T22:31:37.436Z,11.10
2017-08-02T22:34:04.977Z,14.70
2017-08-02T22:36:32.429Z,12.93
2017-08-02T22:38:59.917Z,14.60
2017-08-02T22:41:27.483Z,15.53
2017-08-02T22:43:54.945Z,12.23
2017-08-02T22:46:23.202Z,13.83
2017-08-02T22:48:50.665Z,13.03
2017-08-02T22:51:18.117Z,15.40
2017-08-02T22:53:45.594Z,16.63
2017-08-02T22:56:13.813Z,17.67
2017-08-02T22:58:41.297Z,14.17
2017-08-02T23:01:08.770Z,14.73
2017-08-02T23:03:36.215Z,17.67
2017-08-02T23:06:03.691Z,15.87
2017-08-02T23:08:31.947Z,15.00
2017-08-02T23:10:59.424Z,17.27
2017-08-02T23:13:27.649Z,16.57
2017-08-02T23:15:55.104Z,17.30
2017-08-02T23:18:22.604Z,17.87
2017-08-02T23:20:50.056Z,16.03
2017-08-02T23:23:17.557Z,17.47
2017-08-02T23:25:45.018Z,18.13
2017-08-02T23:28:12.465Z,19.97
2017-08-02T23:30:39.973Z,16.87
2017-08-02T23:33:07.428Z,18.07
2017-08-02T23:35:34.911Z,21.00
2017-08-02T23:38:03.139Z,18.90
2017-08-02T23:40:30.619Z,18.57
2017-08-02T23:42:58.115Z,20.90
2017-08-02T23:45:25.631Z,17.27
2017-08-02T23:47:53.095Z,17.93
2017-08-02T23:50:20.572Z,20.50
2017-08-02T23:52:48.808Z,18.47
2017-08-02T23:55:16.384Z,19.40
2017-08-02T23:57:43.839Z,19.53
